createdAt,value
2019-01-25T00:00:25.386Z,96.83
2019-01-25T00:02:53.103Z,93.37
2019-01-25T00:05:20.769Z,99.93
2019-01-25T00:07:48.078Z,85.30
2019-01-25T00:10:15.438Z,86.63
2019-01-25T00:12:43.045Z,95.03
2019-01-25T00:15:11.499Z,77.90
2019-01-25T00:17:38.792Z,87.20
2019-01-25T00:20:07.645Z,93.53
2019-01-25T00:22:35.676Z,105.27
2019-01-25T00:25:03.053Z,87.60
2019-01-25T00:27:30.509Z,84.97
2019-01-25T00:29:57.794Z,82.47
2019-01-25T00:32:25.170Z,106.23
2019-01-25T00:34:52.471Z,106.63
2019-01-25T00:37:19.778Z,113.30
2019-01-25T00:39:47.061Z,90.67
2019-01-25T00:42:14.717Z,87.40
2019-01-25T00:44:42.005Z,105.90
2019-01-25T00:47:09.385Z,107.32
2019-01-25T00:49:36.742Z,99.70
2019-01-25T00:52:04.114Z,90.37
2019-01-25T00:54:31.704Z,110.77
2019-01-25T00:56:59.060Z,87.67
2019-01-25T00:59:26.357Z,94.73
2019-01-25T01:01:53.721Z,92.90
2019-01-25T01:04:21.025Z,108.30
2019-01-25T01:06:48.306Z,94.03
2019-01-25T01:09:16.061Z,81.13
2019-01-25T01:11:43.618Z,82.50
2019-01-25T01:14:10.931Z,97.20
2019-01-25T01:16:38.224Z,94.73
2019-01-25T01:19:05.793Z,96.87
2019-01-25T01:21:33.073Z,104.50
2019-01-25T01:24:00.377Z,84.00
2019-01-25T01:26:27.674Z,96.23
2019-01-25T01:28:54.985Z,88.03
2019-01-25T01:31:22.272Z,110.97
2019-01-25T01:33:49.581Z,99.07
2019-01-25T01:36:16.862Z,96.83
2019-01-25T01:38:44.169Z,86.53
2019-01-25T01:41:11.727Z,82.33
2019-01-25T01:43:39.374Z,94.13
2019-01-25T01:46:06.663Z,99.87
2019-01-25T01:48:34.138Z,100.50
2019-01-25T01:51:01.430Z,88.90
2019-01-25T01:53:28.736Z,90.27
2019-01-25T01:55:56.021Z,87.67
2019-01-25T01:58:23.331Z,89.77
2019-01-25T02:00:50.685Z,107.30
2019-01-25T02:03:18.344Z,102.00
2019-01-25T02:05:45.631Z,92.63
2019-01-25T02:08:12.918Z,87.23
2019-01-25T02:10:40.295Z,97.40
2019-01-25T02:13:07.650Z,97.73
2019-01-25T02:15:35.337Z,104.20
2019-01-25T02:18:03.006Z,89.73
2019-01-25T02:20:30.764Z,84.43
2019-01-25T02:22:58.113Z,87.57
2019-01-25T02:25:25.491Z,92.92
2019-01-25T02:27:52.845Z,103.97
2019-01-25T02:30:21.690Z,93.90
2019-01-25T02:32:49.051Z,96.93
2019-01-25T02:35:16.722Z,95.40
2019-01-25T02:37:44.073Z,98.27
2019-01-25T02:40:15.960Z,95.13
2019-01-25T02:42:43.320Z,103.03
2019-01-25T02:45:11.798Z,99.57
2019-01-25T02:47:39.565Z,106.07
2019-01-25T02:50:08.406Z,93.47
2019-01-25T02:52:35.701Z,123.37
2019-01-25T02:55:03.488Z,101.47
2019-01-25T02:57:30.765Z,89.90
2019-01-25T02:59:58.136Z,91.27
2019-01-25T03:02:25.428Z,113.17
2019-01-25T03:04:52.766Z,110.90
2019-01-25T03:07:20.053Z,113.63
2019-01-25T03:09:47.425Z,94.80
2019-01-25T03:12:14.777Z,99.73
2019-01-25T03:14:42.312Z,91.65
2019-01-25T03:17:09.662Z,79.63
2019-01-25T03:19:36.963Z,80.63
2019-01-25T03:22:04.238Z,103.90
2019-01-25T03:24:31.547Z,97.27
2019-01-25T03:26:58.834Z,93.97
2019-01-25T03:29:26.118Z,94.93
2019-01-25T03:31:53.423Z,95.07
2019-01-25T03:34:20.732Z,103.20
2019-01-25T03:36:48.107Z,93.80
2019-01-25T03:39:15.736Z,111.83
2019-01-25T03:41:43.041Z,103.77
2019-01-25T03:44:10.399Z,101.90
2019-01-25T03:46:37.799Z,106.97
2019-01-25T03:49:05.222Z,112.03
2019-01-25T03:51:32.669Z,106.50
2019-01-25T03:53:59.960Z,98.90
2019-01-25T03:56:27.646Z,94.37
2019-01-25T03:58:54.942Z,102.67
2019-01-25T04:01:22.254Z,113.10
2019-01-25T04:03:49.545Z,93.53
2019-01-25T04:06:16.853Z,92.62
2019-01-25T04:08:44.209Z,88.83
2019-01-25T04:11:11.588Z,100.30
2019-01-25T04:13:38.873Z,88.10
2019-01-25T04:16:06.238Z,97.10
2019-01-25T04:18:33.594Z,85.03
2019-01-25T04:21:00.898Z,99.53
2019-01-25T04:23:28.177Z,79.00
2019-01-25T04:25:56.762Z,96.50
2019-01-25T04:28:24.092Z,118.53
2019-01-25T04:30:51.405Z,111.30
2019-01-25T04:33:19.137Z,84.53
2019-01-25T04:35:46.426Z,96.90
2019-01-25T04:38:13.728Z,80.70
2019-01-25T04:40:41.310Z,67.33
2019-01-25T04:43:08.616Z,105.40
2019-01-25T04:45:36.237Z,74.03
2019-01-25T04:48:03.543Z,85.30
2019-01-25T04:50:30.898Z,93.13
2019-01-25T04:52:58.209Z,101.83
2019-01-25T04:55:29.674Z,102.27
2019-01-25T04:58:00.153Z,86.03
2019-01-25T05:00:27.447Z,101.43
2019-01-25T05:02:56.014Z,98.23
2019-01-25T05:05:23.772Z,79.70
2019-01-25T05:07:51.894Z,91.77
2019-01-25T05:10:19.546Z,98.17
2019-01-25T05:12:49.103Z,94.40
2019-01-25T05:15:16.511Z,78.30
2019-01-25T05:17:45.717Z,87.60
2019-01-25T05:20:13.087Z,112.03
2019-01-25T05:22:40.732Z,112.93
2019-01-25T05:25:08.082Z,77.10
2019-01-25T05:27:35.381Z,92.83
2019-01-25T05:30:02.746Z,100.83
2019-01-25T05:32:30.138Z,97.20
2019-01-25T05:34:57.481Z,89.10
2019-01-25T05:37:24.790Z,103.17
2019-01-25T05:39:52.075Z,69.17
2019-01-25T05:42:19.393Z,108.37
2019-01-25T05:44:47.052Z,78.60
2019-01-25T05:47:14.357Z,73.37
2019-01-25T05:49:41.703Z,97.73
2019-01-25T05:52:12.162Z,75.43
2019-01-25T05:54:39.465Z,103.33
2019-01-25T05:57:06.757Z,81.50
2019-01-25T05:59:34.063Z,85.43
2019-01-25T06:02:01.726Z,108.70
2019-01-25T06:04:32.923Z,85.83
2019-01-25T06:07:00.277Z,91.60
2019-01-25T06:09:27.649Z,42.67
2019-01-25T06:11:55.261Z,90.63
2019-01-25T06:14:22.567Z,97.67
2019-01-25T06:16:49.850Z,92.90
2019-01-25T06:19:17.163Z,43.27
2019-01-25T06:21:44.518Z,53.90
2019-01-25T06:24:11.821Z,63.13
2019-01-25T06:26:42.277Z,59.10
2019-01-25T06:29:09.580Z,71.00
2019-01-25T06:31:36.874Z,100.30
2019-01-25T06:34:04.303Z,93.50
2019-01-25T06:36:31.621Z,64.07
2019-01-25T06:38:59.273Z,63.50
2019-01-25T06:41:26.561Z,68.47
2019-01-25T06:43:53.861Z,80.43
2019-01-25T06:46:21.436Z,70.30
2019-01-25T06:48:48.735Z,88.33
2019-01-25T06:51:16.013Z,90.93
2019-01-25T06:53:43.313Z,93.90
2019-01-25T06:56:10.669Z,101.67
2019-01-25T06:58:39.616Z,73.97
2019-01-25T07:01:11.245Z,76.60
2019-01-25T07:03:38.601Z,78.20
2019-01-25T07:06:05.965Z,66.07
2019-01-25T07:08:33.319Z,48.07
2019-01-25T07:11:00.630Z,79.63
2019-01-25T07:13:28.413Z,59.73
2019-01-25T07:15:55.793Z,52.03
2019-01-25T07:18:23.875Z,85.30
2019-01-25T07:20:51.349Z,83.40
2019-01-25T07:23:18.630Z,76.47
2019-01-25T07:25:45.998Z,50.75
2019-01-25T07:28:13.276Z,89.97
2019-01-25T07:30:40.653Z,97.43
2019-01-25T07:33:07.942Z,83.83
2019-01-25T07:35:35.386Z,76.83
2019-01-25T07:38:02.738Z,94.43
2019-01-25T07:40:30.122Z,78.03
2019-01-25T07:42:57.500Z,51.10
2019-01-25T07:45:24.864Z,90.40
2019-01-25T07:47:52.276Z,90.20
2019-01-25T07:50:19.641Z,85.73
2019-01-25T07:52:47.087Z,83.57
2019-01-25T07:55:14.522Z,82.10
2019-01-25T07:57:42.185Z,81.10
2019-01-25T08:00:13.921Z,90.30
2019-01-25T08:02:41.645Z,81.97
2019-01-25T08:05:10.634Z,37.13
2019-01-25T08:07:38.869Z,63.90
2019-01-25T08:10:19.854Z,82.77
2019-01-25T08:12:47.262Z,61.50
2019-01-25T08:15:16.518Z,98.03
2019-01-25T08:17:44.183Z,81.37
2019-01-25T08:20:12.502Z,115.92
2019-01-25T08:22:39.832Z,96.80
2019-01-25T08:25:07.914Z,107.33
2019-01-25T08:27:35.358Z,96.97
2019-01-25T08:30:04.234Z,74.93
2019-01-25T08:32:31.916Z,89.37
2019-01-25T08:34:59.200Z,81.07
2019-01-25T08:37:26.564Z,103.57
2019-01-25T08:39:54.170Z,74.30
2019-01-25T08:42:21.500Z,84.70
2019-01-25T08:44:50.136Z,104.07
2019-01-25T08:47:17.438Z,84.53
2019-01-25T08:49:44.855Z,112.70
2019-01-25T08:52:12.523Z,92.10
2019-01-25T08:54:40.182Z,84.03
2019-01-25T08:57:07.554Z,87.00
2019-01-25T08:59:34.926Z,111.67
2019-01-25T09:02:02.570Z,100.17
2019-01-25T09:04:29.850Z,88.67
2019-01-25T09:06:57.152Z,68.13
2019-01-25T09:09:24.446Z,108.75
2019-01-25T09:11:51.753Z,91.17
2019-01-25T09:14:19.349Z,95.73
2019-01-25T09:16:46.697Z,82.50
2019-01-25T09:19:14.081Z,100.33
2019-01-25T09:21:41.383Z,95.03
2019-01-25T09:24:08.978Z,96.90
2019-01-25T09:26:36.645Z,76.37
2019-01-25T09:29:04.310Z,96.67
2019-01-25T09:31:31.735Z,89.50
2019-01-25T09:33:59.038Z,69.00
2019-01-25T09:36:26.320Z,91.43
2019-01-25T09:38:53.622Z,95.50
2019-01-25T09:41:21.126Z,79.30
2019-01-25T09:43:48.605Z,105.73
2019-01-25T09:46:16.330Z,94.20
2019-01-25T09:48:43.642Z,101.23
2019-01-25T09:51:11.006Z,67.60
2019-01-25T09:53:38.305Z,87.33
2019-01-25T09:56:05.654Z,94.03
2019-01-25T09:58:33.030Z,79.97
2019-01-25T10:01:01.992Z,74.57
2019-01-25T10:03:29.670Z,54.23
2019-01-25T10:05:56.964Z,102.17
2019-01-25T10:08:24.269Z,86.17
2019-01-25T10:10:51.556Z,88.12
2019-01-25T10:13:18.861Z,89.10
2019-01-25T10:15:46.138Z,69.47
2019-01-25T10:18:13.443Z,76.10
2019-01-25T10:20:40.732Z,96.87
2019-01-25T10:23:08.431Z,93.70
2019-01-25T10:25:35.716Z,96.03
2019-01-25T10:28:03.011Z,79.80
2019-01-25T10:30:30.435Z,72.77
2019-01-25T10:32:57.745Z,90.80
2019-01-25T10:35:25.102Z,77.17
2019-01-25T10:37:53.247Z,97.05
2019-01-25T10:40:21.375Z,64.97
2019-01-25T10:42:53.403Z,76.73
2019-01-25T10:45:19.575Z,90.97
2019-01-25T10:47:46.866Z,81.33
2019-01-25T10:50:14.598Z,76.63
2019-01-25T10:52:42.253Z,82.80
2019-01-25T10:55:10.729Z,49.87
2019-01-25T10:57:38.081Z,52.43
2019-01-25T11:00:06.918Z,79.60
2019-01-25T11:02:34.550Z,82.67
2019-01-25T11:05:01.866Z,65.33
2019-01-25T11:07:29.149Z,86.97
2019-01-25T11:09:56.454Z,64.83
2019-01-25T11:12:23.734Z,73.43
2019-01-25T11:14:51.039Z,71.30
2019-01-25T11:17:18.333Z,83.17
2019-01-25T11:19:45.702Z,76.87
2019-01-25T11:22:12.990Z,83.63
2019-01-25T11:24:40.291Z,85.22
2019-01-25T11:27:07.569Z,76.13
2019-01-25T11:29:35.176Z,67.50
2019-01-25T11:32:02.455Z,74.83
2019-01-25T11:34:33.095Z,71.13
2019-01-25T11:36:58.770Z,70.90
2019-01-25T11:39:26.141Z,49.43
2019-01-25T11:41:53.808Z,66.30
2019-01-25T11:44:21.473Z,89.70
2019-01-25T11:46:49.143Z,64.27
2019-01-25T11:49:16.452Z,58.48
2019-01-25T11:51:43.738Z,53.90
2019-01-25T11:54:11.054Z,67.80
2019-01-25T11:56:38.397Z,63.03
2019-01-25T11:59:05.788Z,59.40
2019-01-25T12:01:33.599Z,67.83
2019-01-25T12:04:00.950Z,49.13
2019-01-25T12:06:28.321Z,78.07
2019-01-25T12:08:55.678Z,62.13
2019-01-25T12:11:22.982Z,41.33
2019-01-25T12:13:50.266Z,55.08
2019-01-25T12:16:17.582Z,75.10
2019-01-25T12:18:45.609Z,78.77
2019-01-25T12:21:12.904Z,71.43
2019-01-25T12:23:40.182Z,72.73
2019-01-25T12:26:07.775Z,65.78
2019-01-25T12:28:35.055Z,80.13
2019-01-25T12:31:02.426Z,74.40
2019-01-25T12:33:29.704Z,75.30
2019-01-25T12:35:57.014Z,61.83
2019-01-25T12:38:24.300Z,73.77
2019-01-25T12:40:51.610Z,76.00
2019-01-25T12:43:23.955Z,63.50
2019-01-25T12:45:50.218Z,74.17
2019-01-25T12:48:16.973Z,64.70
2019-01-25T12:50:48.951Z,81.80
2019-01-25T12:53:15.866Z,73.03
2019-01-25T12:55:43.309Z,76.20
2019-01-25T12:58:10.594Z,72.17
2019-01-25T13:00:39.908Z,76.47
2019-01-25T13:03:07.261Z,57.53
2019-01-25T13:05:34.566Z,65.10
2019-01-25T13:08:01.853Z,67.63
2019-01-25T13:10:29.330Z,71.20
2019-01-25T13:12:56.680Z,68.50
2019-01-25T13:15:23.968Z,59.33
2019-01-25T13:17:51.446Z,59.27
2019-01-25T13:20:20.102Z,68.37
2019-01-25T13:22:47.410Z,62.20
2019-01-25T13:25:14.702Z,74.63
2019-01-25T13:27:42.150Z,60.27
2019-01-25T13:30:14.186Z,55.33
2019-01-25T13:32:41.629Z,59.73
2019-01-25T13:35:10.040Z,57.97
2019-01-25T13:37:37.573Z,65.53
2019-01-25T13:40:12.381Z,62.87
2019-01-25T13:42:39.684Z,57.23
2019-01-25T13:45:08.825Z,56.63
2019-01-25T13:47:36.129Z,64.83
2019-01-25T13:50:05.504Z,64.33
2019-01-25T13:52:33.090Z,69.70
2019-01-25T13:55:00.522Z,72.23
2019-01-25T13:57:27.822Z,41.90
2019-01-25T13:59:55.132Z,62.53
2019-01-25T14:02:22.442Z,52.70
2019-01-25T14:04:49.725Z,69.43
2019-01-25T14:07:21.089Z,59.97
2019-01-25T14:09:46.093Z,70.30
2019-01-25T14:12:13.466Z,60.93
2019-01-25T14:14:40.754Z,67.87
2019-01-25T14:17:08.117Z,60.30
2019-01-25T14:19:35.402Z,68.00
2019-01-25T14:22:02.719Z,55.23
2019-01-25T14:24:29.997Z,60.40
2019-01-25T14:26:57.300Z,67.83
2019-01-25T14:29:29.165Z,58.47
2019-01-25T14:31:53.691Z,63.67
2019-01-25T14:34:21.058Z,61.53
2019-01-25T14:36:48.343Z,69.80
2019-01-25T14:39:15.648Z,65.62
2019-01-25T14:41:42.930Z,65.97
2019-01-25T14:44:10.361Z,54.23
2019-01-25T14:46:37.650Z,68.77
2019-01-25T14:49:05.039Z,70.53
2019-01-25T14:51:32.330Z,57.30
2019-01-25T14:53:59.633Z,71.80
2019-01-25T14:56:26.921Z,62.80
2019-01-25T14:58:54.573Z,67.03
2019-01-25T15:01:21.861Z,90.00
2019-01-25T15:03:49.172Z,64.10
2019-01-25T15:06:16.525Z,61.50
2019-01-25T15:08:43.834Z,83.15
2019-01-25T15:11:11.123Z,55.40
2019-01-25T15:13:38.424Z,79.37
2019-01-25T15:16:05.787Z,57.67
2019-01-25T15:18:33.097Z,72.43
2019-01-25T15:21:00.794Z,80.63
2019-01-25T15:23:28.093Z,87.07
2019-01-25T15:25:55.373Z,69.37
2019-01-25T15:28:22.674Z,61.57
2019-01-25T15:30:49.970Z,71.70
2019-01-25T15:33:17.337Z,68.47
2019-01-25T15:35:44.937Z,61.53
2019-01-25T15:38:12.253Z,65.10
2019-01-25T15:40:39.539Z,59.87
2019-01-25T15:43:06.912Z,76.43
2019-01-25T15:45:34.564Z,70.83
2019-01-25T15:48:01.864Z,70.20
2019-01-25T15:50:30.126Z,61.90
2019-01-25T15:52:57.579Z,77.17
2019-01-25T15:55:25.059Z,66.47
2019-01-25T15:57:52.421Z,68.47
2019-01-25T16:00:20.896Z,65.30
2019-01-25T16:02:48.346Z,62.07
2019-01-25T16:05:16.715Z,75.70
2019-01-25T16:07:44.072Z,67.27
2019-01-25T16:10:12.946Z,82.57
2019-01-25T16:12:40.230Z,58.58
2019-01-25T16:15:09.069Z,74.37
2019-01-25T16:17:36.350Z,74.43
2019-01-25T16:20:05.377Z,84.60
2019-01-25T16:22:32.727Z,76.97
2019-01-25T16:25:00.031Z,63.33
2019-01-25T16:27:27.314Z,79.63
2019-01-25T16:29:54.617Z,69.83
2019-01-25T16:32:21.894Z,74.00
2019-01-25T16:34:49.469Z,85.73
2019-01-25T16:37:16.770Z,65.37
2019-01-25T16:39:44.136Z,56.40
2019-01-25T16:42:11.420Z,67.40
2019-01-25T16:44:39.424Z,69.10
2019-01-25T16:47:07.045Z,80.90
2019-01-25T16:49:34.354Z,54.40
2019-01-25T16:52:01.641Z,44.43
2019-01-25T16:54:29.043Z,56.60
2019-01-25T16:56:56.658Z,70.50
2019-01-25T16:59:23.970Z,51.73
2019-01-25T17:01:51.259Z,48.97
2019-01-25T17:04:18.613Z,49.73
2019-01-25T17:06:45.921Z,47.23
2019-01-25T17:09:13.207Z,45.20
2019-01-25T17:11:40.613Z,68.63
2019-01-25T17:14:07.972Z,41.30
2019-01-25T17:16:35.285Z,55.23
2019-01-25T17:19:02.573Z,44.30
2019-01-25T17:21:29.888Z,48.30
2019-01-25T17:23:57.189Z,37.00
2019-01-25T17:26:24.489Z,51.43
2019-01-25T17:28:51.849Z,41.37
2019-01-25T17:31:19.161Z,49.87
2019-01-25T17:33:46.632Z,47.60
2019-01-25T17:36:13.930Z,39.00
2019-01-25T17:38:41.490Z,48.65
2019-01-25T17:41:09.190Z,50.07
2019-01-25T17:43:36.466Z,62.17
2019-01-25T17:46:04.142Z,50.13
2019-01-25T17:48:31.489Z,48.20
2019-01-25T17:50:58.822Z,42.23
2019-01-25T17:53:26.154Z,35.83
2019-01-25T17:55:53.450Z,44.17
2019-01-25T17:58:20.729Z,47.53
2019-01-25T18:00:49.740Z,56.50
2019-01-25T18:03:17.034Z,43.28
2019-01-25T18:05:44.553Z,62.50
2019-01-25T18:08:11.998Z,37.13
2019-01-25T18:10:39.734Z,27.67
2019-01-25T18:13:07.502Z,55.60
2019-01-25T18:15:34.798Z,47.70
2019-01-25T18:18:02.237Z,29.10
2019-01-25T18:20:29.981Z,52.80
2019-01-25T18:22:57.357Z,51.92
2019-01-25T18:25:26.180Z,34.17
2019-01-25T18:27:55.025Z,47.57
2019-01-25T18:30:32.945Z,46.50
2019-01-25T18:33:00.249Z,48.43
2019-01-25T18:35:27.543Z,36.07
2019-01-25T18:37:54.977Z,47.07
2019-01-25T18:40:22.255Z,50.03
2019-01-25T18:42:49.657Z,54.47
2019-01-25T18:45:17.015Z,57.03
2019-01-25T18:47:44.422Z,57.67
2019-01-25T18:50:13.477Z,55.27
2019-01-25T18:52:40.873Z,43.53
2019-01-25T18:55:09.719Z,38.27
2019-01-25T18:57:37.182Z,57.87
2019-01-25T19:00:06.018Z,44.43
2019-01-25T19:02:33.324Z,53.27
2019-01-25T19:05:00.609Z,66.83
2019-01-25T19:07:27.905Z,57.27
2019-01-25T19:09:55.222Z,61.30
2019-01-25T19:12:22.548Z,65.87
2019-01-25T19:14:49.829Z,36.93
2019-01-25T19:17:17.136Z,60.08
2019-01-25T19:19:44.445Z,56.63
2019-01-25T19:22:11.729Z,52.93
2019-01-25T19:24:39.034Z,37.00
2019-01-25T19:27:06.392Z,60.20
2019-01-25T19:29:33.830Z,43.23
2019-01-25T19:32:01.184Z,57.40
2019-01-25T19:34:28.837Z,56.87
2019-01-25T19:36:56.126Z,52.03
2019-01-25T19:39:23.497Z,49.60
2019-01-25T19:41:50.824Z,52.63
2019-01-25T19:44:18.126Z,58.13
2019-01-25T19:46:45.481Z,59.13
2019-01-25T19:49:13.191Z,64.23
2019-01-25T19:51:40.474Z,71.03
2019-01-25T19:54:07.917Z,63.17
2019-01-25T19:56:35.271Z,63.23
2019-01-25T19:59:02.643Z,53.23
2019-01-25T20:01:29.992Z,43.17
2019-01-25T20:03:57.297Z,46.43
2019-01-25T20:06:24.650Z,52.87
2019-01-25T20:08:53.035Z,55.70
2019-01-25T20:11:20.369Z,58.67
2019-01-25T20:13:47.662Z,68.27
2019-01-25T20:16:14.944Z,60.03
2019-01-25T20:18:42.714Z,61.20
2019-01-25T20:21:10.110Z,68.93
2019-01-25T20:23:37.493Z,71.67
2019-01-25T20:26:05.361Z,69.70
2019-01-25T20:28:32.645Z,48.30
2019-01-25T20:30:59.947Z,55.43
2019-01-25T20:33:27.225Z,47.00
2019-01-25T20:35:54.933Z,53.37
2019-01-25T20:38:22.228Z,58.00
2019-01-25T20:40:49.525Z,49.07
2019-01-25T20:43:16.878Z,53.13
2019-01-25T20:45:44.179Z,56.00
2019-01-25T20:48:11.857Z,53.97
2019-01-25T20:50:40.101Z,45.80
2019-01-25T20:53:08.954Z,47.93
2019-01-25T20:55:36.739Z,58.97
2019-01-25T20:58:05.203Z,58.80
2019-01-25T21:00:33.928Z,57.50
2019-01-25T21:03:01.877Z,48.60
2019-01-25T21:05:29.253Z,50.83
2019-01-25T21:07:56.601Z,61.10
2019-01-25T21:10:24.950Z,45.23
2019-01-25T21:12:52.598Z,46.43
2019-01-25T21:15:21.454Z,48.07
2019-01-25T21:17:49.105Z,65.27
2019-01-25T21:20:18.329Z,44.60
2019-01-25T21:22:45.690Z,43.80
2019-01-25T21:25:13.618Z,52.50
2019-01-25T21:27:41.075Z,54.23
2019-01-25T21:30:12.605Z,47.73
2019-01-25T21:32:40.337Z,50.30
2019-01-25T21:35:09.349Z,42.50
2019-01-25T21:37:36.810Z,53.50
2019-01-25T21:40:08.554Z,49.30
2019-01-25T21:42:34.817Z,58.87
2019-01-25T21:45:02.266Z,55.70
2019-01-25T21:47:29.574Z,52.43
2019-01-25T21:49:56.866Z,56.27
2019-01-25T21:52:24.297Z,48.23
2019-01-25T21:54:51.585Z,51.13
2019-01-25T21:57:18.889Z,42.13
2019-01-25T21:59:46.172Z,46.10
2019-01-25T22:02:13.580Z,53.80
2019-01-25T22:04:40.938Z,49.80
2019-01-25T22:07:08.324Z,49.43
2019-01-25T22:09:35.926Z,55.73
2019-01-25T22:12:03.294Z,46.27
2019-01-25T22:14:30.574Z,54.03
2019-01-25T22:16:58.250Z,60.33
2019-01-25T22:19:25.627Z,48.93
2019-01-25T22:21:53.129Z,57.57
2019-01-25T22:24:20.484Z,59.63
2019-01-25T22:26:47.781Z,71.23
2019-01-25T22:29:15.366Z,49.55
2019-01-25T22:31:42.741Z,43.07
2019-01-25T22:34:10.098Z,48.83
2019-01-25T22:36:37.420Z,49.50
2019-01-25T22:39:06.570Z,46.47
2019-01-25T22:41:33.886Z,61.00
2019-01-25T22:44:01.174Z,51.53
2019-01-25T22:46:28.462Z,54.17
2019-01-25T22:48:56.105Z,55.60
2019-01-25T22:51:23.854Z,50.43
2019-01-25T22:53:51.222Z,54.40
2019-01-25T22:56:18.532Z,72.57
2019-01-25T22:58:45.829Z,58.87
2019-01-25T23:01:17.574Z,61.63
2019-01-25T23:03:46.429Z,72.53
2019-01-25T23:06:30.274Z,60.07
2019-01-25T23:08:59.520Z,68.40
2019-01-25T23:11:26.883Z,55.17
2019-01-25T23:13:54.190Z,69.83
2019-01-25T23:16:21.477Z,57.30
2019-01-25T23:18:48.858Z,61.40
2019-01-25T23:21:16.209Z,60.30
2019-01-25T23:23:43.512Z,62.70
2019-01-25T23:26:10.858Z,65.40
2019-01-25T23:28:38.229Z,67.90
2019-01-25T23:31:05.577Z,58.43
2019-01-25T23:33:32.885Z,52.67
2019-01-25T23:36:00.275Z,58.30
2019-01-25T23:38:28.041Z,70.73
2019-01-25T23:40:55.322Z,55.97
2019-01-25T23:43:22.960Z,61.33
2019-01-25T23:45:50.249Z,49.47
2019-01-25T23:48:17.715Z,74.50
2019-01-25T23:50:45.145Z,61.53
2019-01-25T23:53:12.449Z,69.47
2019-01-25T23:55:39.727Z,73.13
2019-01-25T23:58:07.032Z,64.77
